createdAt,value
2023-02-27T00:02:22.228Z,101799.13
2023-02-27T00:05:03.240Z,101798.21
2023-02-27T00:07:39.162Z,101801.92
2023-02-27T00:10:22.935Z,101807.56
2023-02-27T00:12:57.749Z,101803.13
2023-02-27T00:15:32.553Z,101800.56
2023-02-27T00:18:08.103Z,101802.27
2023-02-27T00:20:42.971Z,101804.00
2023-02-27T00:23:22.767Z,101803.96
2023-02-27T00:26:01.853Z,101803.63
2023-02-27T00:28:40.753Z,101808.11
2023-02-27T00:31:13.607Z,101809.86
2023-02-27T00:33:45.569Z,101815.19
2023-02-27T00:36:22.102Z,101821.63
2023-02-27T00:38:59.324Z,101824.23
2023-02-27T00:41:32.011Z,101832.20
2023-02-27T00:44:05.927Z,101831.58
2023-02-27T00:46:43.935Z,101831.74
2023-02-27T00:49:25.729Z,101829.82
2023-02-27T00:52:08.750Z,101834.63
2023-02-27T00:54:49.292Z,101833.10
2023-02-27T00:57:24.145Z,101836.11
2023-02-27T01:00:05.307Z,101831.00
2023-02-27T01:02:45.064Z,101831.67
2023-02-27T01:05:17.815Z,101831.97
2023-02-27T01:07:56.713Z,101832.63
2023-02-27T01:10:30.590Z,101831.66
2023-02-27T01:13:07.007Z,101832.49
2023-02-27T01:15:50.620Z,101832.75
2023-02-27T01:18:26.673Z,101823.30
2023-02-27T01:21:07.304Z,101825.16
2023-02-27T01:23:44.139Z,101828.40
2023-02-27T01:26:37.885Z,101821.42
2023-02-27T01:29:10.985Z,101827.50
2023-02-27T01:31:53.289Z,101826.40
2023-02-27T01:34:27.301Z,101824.48
2023-02-27T01:37:15.530Z,101826.95
2023-02-27T01:39:56.382Z,101832.02
2023-02-27T01:42:42.888Z,101836.79
2023-02-27T01:45:35.370Z,101842.62
2023-02-27T01:48:26.769Z,101846.39
2023-02-27T01:51:06.431Z,101847.62
2023-02-27T01:53:56.369Z,101850.91
2023-02-27T01:56:36.274Z,101852.82
2023-02-27T01:59:20.262Z,101850.70
2023-02-27T02:01:56.809Z,101854.30
2023-02-27T02:04:34.209Z,101855.30
2023-02-27T02:07:29.784Z,101855.02
2023-02-27T02:10:18.043Z,101853.44
2023-02-27T02:12:52.275Z,101854.70
2023-02-27T02:15:38.352Z,101854.92
2023-02-27T02:18:29.319Z,101858.20
2023-02-27T02:21:42.453Z,101861.05
2023-02-27T02:24:46.464Z,101865.82
2023-02-27T02:27:44.546Z,101871.19
2023-02-27T02:30:58.436Z,101874.45
2023-02-27T02:34:20.004Z,101876.64
2023-02-27T02:37:41.094Z,101882.02
2023-02-27T02:40:41.055Z,101888.54
2023-02-27T02:43:29.248Z,101885.56
2023-02-27T02:46:11.448Z,101884.63
2023-02-27T02:48:59.863Z,101892.95
2023-02-27T02:51:46.519Z,101890.61
2023-02-27T02:54:31.627Z,101892.77
2023-02-27T02:57:12.013Z,101889.59
2023-02-27T03:00:00.054Z,101890.12
2023-02-27T03:02:39.936Z,101894.42
2023-02-27T03:05:22.049Z,101899.79
2023-02-27T03:08:04.763Z,101902.16
2023-02-27T03:10:45.490Z,101905.70
2023-02-27T03:13:36.448Z,101908.67
2023-02-27T03:16:25.723Z,101911.26
2023-02-27T03:19:08.613Z,101916.68
2023-02-27T03:21:46.028Z,101917.12
2023-02-27T03:24:27.172Z,101916.94
2023-02-27T03:27:05.311Z,101920.10
2023-02-27T03:29:46.194Z,101924.94
2023-02-27T03:32:24.220Z,101931.85
2023-02-27T03:35:00.477Z,101932.68
2023-02-27T03:37:47.571Z,101931.08
2023-02-27T03:40:31.603Z,101935.36
2023-02-27T03:43:23.116Z,101935.52
2023-02-27T03:46:10.771Z,101933.48
2023-02-27T03:48:47.589Z,101934.02
2023-02-27T03:51:27.373Z,101938.16
2023-02-27T03:54:08.566Z,101938.27
2023-02-27T03:56:47.284Z,101939.26
2023-02-27T03:59:22.590Z,101941.99
2023-02-27T04:02:07.088Z,101941.46
2023-02-27T04:04:41.225Z,101948.36
2023-02-27T04:07:48.501Z,101949.01
2023-02-27T04:10:58.008Z,101949.67
2023-02-27T04:13:45.304Z,101951.38
2023-02-27T04:16:52.369Z,101956.48
2023-02-27T04:20:00.000Z,101955.45
2023-02-27T04:22:40.172Z,101959.63
2023-02-27T04:25:34.542Z,101959.74
2023-02-27T04:28:37.385Z,101955.80
2023-02-27T04:31:22.269Z,101963.89
2023-02-27T04:34:04.553Z,101964.29
2023-02-27T04:36:43.708Z,101966.23
2023-02-27T04:39:24.700Z,101969.29
2023-02-27T04:42:06.025Z,101969.05
2023-02-27T04:44:44.324Z,101967.74
2023-02-27T04:47:21.741Z,101971.61
2023-02-27T04:49:57.996Z,101974.48
2023-02-27T04:52:42.524Z,101978.57
2023-02-27T04:55:22.169Z,101983.31
2023-02-27T04:58:06.177Z,101986.79
2023-02-27T05:00:52.744Z,101988.92
2023-02-27T05:03:35.486Z,101995.78
2023-02-27T05:06:20.790Z,102001.64
2023-02-27T05:09:07.992Z,102006.69
2023-02-27T05:11:51.878Z,102005.15
2023-02-27T05:14:34.538Z,102005.54
2023-02-27T05:17:12.704Z,102010.04
2023-02-27T05:19:50.465Z,102010.81
2023-02-27T05:22:35.252Z,102011.63
2023-02-27T05:25:13.813Z,102012.92
2023-02-27T05:27:52.081Z,102017.34
2023-02-27T05:30:37.095Z,102024.46
2023-02-27T05:33:20.537Z,102026.83
2023-02-27T05:36:13.522Z,102026.69
2023-02-27T05:38:56.596Z,102033.02
2023-02-27T05:41:39.485Z,102034.40
2023-02-27T05:44:30.172Z,102035.34
2023-02-27T05:47:18.522Z,102038.49
2023-02-27T05:49:57.131Z,102040.27
2023-02-27T05:52:34.780Z,102050.17
2023-02-27T05:55:18.809Z,102049.73
2023-02-27T05:57:57.527Z,102051.74
2023-02-27T06:00:45.186Z,102059.59
2023-02-27T06:03:34.555Z,102065.14
2023-02-27T06:06:23.516Z,102068.02
2023-02-27T06:08:58.923Z,102067.77
2023-02-27T06:11:41.438Z,102064.64
2023-02-27T06:14:18.481Z,102068.10
2023-02-27T06:16:58.747Z,102070.79
2023-02-27T06:19:36.630Z,102072.23
2023-02-27T06:22:10.094Z,102074.13
2023-02-27T06:24:48.422Z,102072.00
2023-02-27T06:27:26.382Z,102072.19
2023-02-27T06:29:59.614Z,102075.02
2023-02-27T06:32:35.955Z,102073.45
2023-02-27T06:35:14.959Z,102075.86
2023-02-27T06:37:54.977Z,102074.64
2023-02-27T06:40:36.121Z,102068.33
2023-02-27T06:43:08.717Z,102071.41
2023-02-27T06:46:08.670Z,102067.88
2023-02-27T06:48:43.268Z,102069.59
2023-02-27T06:51:25.064Z,102075.00
2023-02-27T06:53:58.140Z,102088.30
2023-02-27T06:56:31.132Z,102104.61
2023-02-27T06:59:05.495Z,102104.13
2023-02-27T07:01:41.479Z,102106.59
2023-02-27T07:04:26.747Z,102115.27
2023-02-27T07:07:33.939Z,102119.17
2023-02-27T07:09:57.105Z,102111.52
2023-02-27T07:12:36.218Z,102114.38
2023-02-27T07:15:17.645Z,102118.51
2023-02-27T07:17:51.322Z,102122.00
2023-02-27T07:20:27.876Z,102122.89
2023-02-27T07:23:04.039Z,102122.63
2023-02-27T07:25:46.281Z,102130.80
2023-02-27T07:28:23.107Z,102134.88
2023-02-27T07:30:58.121Z,102133.77
2023-02-27T07:33:37.190Z,102137.75
2023-02-27T07:36:16.270Z,102137.35
2023-02-27T07:38:53.508Z,102136.34
2023-02-27T07:41:31.148Z,102131.73
2023-02-27T07:44:13.426Z,102130.61
2023-02-27T07:46:48.367Z,102139.06
2023-02-27T07:49:30.440Z,102139.90
2023-02-27T07:52:10.795Z,102140.59
2023-02-27T07:54:46.951Z,102139.62
2023-02-27T07:57:22.301Z,102146.71
2023-02-27T07:59:55.343Z,102151.16
2023-02-27T08:02:29.666Z,102153.73
2023-02-27T08:05:07.363Z,102156.27
2023-02-27T08:07:41.188Z,102158.98
2023-02-27T08:10:28.876Z,102162.89
2023-02-27T08:13:09.088Z,102162.86
2023-02-27T08:15:47.585Z,102162.17
2023-02-27T08:18:24.117Z,102163.84
2023-02-27T08:21:00.873Z,102169.16
2023-02-27T08:23:38.575Z,102170.02
2023-02-27T08:26:15.163Z,102168.02
2023-02-27T08:28:47.342Z,102170.34
2023-02-27T08:31:20.798Z,102171.61
2023-02-27T08:34:07.786Z,102176.11
2023-02-27T08:36:47.117Z,102181.35
2023-02-27T08:39:24.783Z,102180.55
2023-02-27T08:41:58.350Z,102186.77
2023-02-27T08:44:32.976Z,102187.61
2023-02-27T08:47:08.075Z,102184.48
2023-02-27T08:49:49.756Z,102189.91
2023-02-27T08:52:23.455Z,102186.00
2023-02-27T08:54:58.465Z,102181.86
2023-02-27T08:57:43.466Z,102179.96
2023-02-27T09:00:26.328Z,102187.39
2023-02-27T09:03:03.991Z,102186.22
2023-02-27T09:05:39.013Z,102188.14
2023-02-27T09:08:14.932Z,102182.06
2023-02-27T09:10:53.494Z,102189.53
2023-02-27T09:13:32.602Z,102186.66
2023-02-27T09:16:05.209Z,102189.39
2023-02-27T09:18:38.654Z,102187.48
2023-02-27T09:21:13.362Z,102188.02
2023-02-27T09:23:58.055Z,102188.08
2023-02-27T09:26:44.994Z,102190.71
2023-02-27T09:29:27.863Z,102188.39
2023-02-27T09:31:59.844Z,102188.03
2023-02-27T09:34:32.178Z,102186.78
2023-02-27T09:37:08.926Z,102190.33
2023-02-27T09:39:46.413Z,102192.30
2023-02-27T09:42:27.123Z,102197.27
2023-02-27T09:45:05.740Z,102196.80
2023-02-27T09:47:51.603Z,102203.03
2023-02-27T09:51:04.471Z,102206.77
2023-02-27T09:53:45.750Z,102206.56
2023-02-27T09:56:27.740Z,102208.73
2023-02-27T09:59:11.865Z,102214.48
2023-02-27T10:01:50.720Z,102213.28
2023-02-27T10:04:43.394Z,102218.12
2023-02-27T10:07:23.395Z,102216.66
2023-02-27T10:10:10.003Z,102218.50
2023-02-27T10:13:08.347Z,102223.89
2023-02-27T10:15:45.795Z,102222.14
2023-02-27T10:18:31.192Z,102225.36
2023-02-27T10:21:16.073Z,102226.16
2023-02-27T10:23:57.513Z,102227.05
2023-02-27T10:26:34.644Z,102229.30
2023-02-27T10:29:18.586Z,102230.89
2023-02-27T10:32:00.310Z,102233.96
2023-02-27T10:34:35.434Z,102230.73
2023-02-27T10:37:19.601Z,102227.03
2023-02-27T10:40:01.964Z,102224.55
2023-02-27T10:42:43.322Z,102219.58
2023-02-27T10:45:30.074Z,102217.79
2023-02-27T10:48:06.706Z,102220.54
2023-02-27T10:50:50.618Z,102223.23
2023-02-27T10:53:41.942Z,102228.47
2023-02-27T10:56:25.128Z,102233.29
2023-02-27T10:59:08.815Z,102235.13
2023-02-27T11:01:55.432Z,102235.19
2023-02-27T11:04:33.992Z,102233.57
2023-02-27T11:07:13.917Z,102232.41
2023-02-27T11:10:02.859Z,102235.45
2023-02-27T11:12:39.752Z,102238.24
2023-02-27T11:15:29.193Z,102239.08
2023-02-27T11:18:26.863Z,102235.92
2023-02-27T11:21:20.464Z,102237.73
2023-02-27T11:24:00.792Z,102238.73
2023-02-27T11:26:39.364Z,102244.70
2023-02-27T11:29:19.305Z,102239.70
2023-02-27T11:32:01.456Z,102241.20
2023-02-27T11:34:37.387Z,102240.04
2023-02-27T11:37:29.388Z,102237.38
2023-02-27T11:40:21.087Z,102238.84
2023-02-27T11:42:58.533Z,102232.94
2023-02-27T11:46:12.169Z,102236.00
2023-02-27T11:48:31.909Z,102235.33
2023-02-27T11:51:30.768Z,102231.38
2023-02-27T11:54:21.776Z,102232.67
2023-02-27T11:56:58.242Z,102230.43
2023-02-27T11:59:47.308Z,102229.84
2023-02-27T12:02:29.236Z,102231.68
2023-02-27T12:05:08.946Z,102228.42
2023-02-27T12:07:52.718Z,102228.48
2023-02-27T12:11:20.643Z,102225.71
2023-02-27T12:14:41.241Z,102228.24
2023-02-27T12:17:41.389Z,102230.38
2023-02-27T12:20:41.413Z,102228.73
2023-02-27T12:23:40.930Z,102229.70
2023-02-27T12:26:47.907Z,102229.37
2023-02-27T12:29:36.762Z,102230.44
2023-02-27T12:32:19.268Z,102223.29
2023-02-27T12:35:05.576Z,102227.70
2023-02-27T12:37:50.863Z,102229.36
2023-02-27T12:40:32.843Z,102229.55
2023-02-27T12:43:25.200Z,102227.91
2023-02-27T12:46:38.034Z,102226.45
2023-02-27T12:49:25.755Z,102226.41
2023-02-27T12:52:14.123Z,102226.42
2023-02-27T12:55:03.984Z,102226.10
2023-02-27T12:58:08.430Z,102229.00
2023-02-27T13:00:46.642Z,102234.93
2023-02-27T13:03:28.513Z,102234.55
2023-02-27T13:06:08.669Z,102241.77
2023-02-27T13:09:11.055Z,102241.52
2023-02-27T13:11:53.537Z,102244.59
2023-02-27T13:14:47.008Z,102244.88
2023-02-27T13:17:36.100Z,102242.42
2023-02-27T13:20:27.349Z,102240.48
2023-02-27T13:23:24.683Z,102237.64
2023-02-27T13:26:18.602Z,102238.67
2023-02-27T13:28:55.818Z,102240.17
2023-02-27T13:31:37.072Z,102237.21
2023-02-27T13:34:26.428Z,102237.89
2023-02-27T13:37:08.794Z,102242.27
2023-02-27T13:40:02.082Z,102241.50
2023-02-27T13:42:54.471Z,102240.59
2023-02-27T13:45:57.149Z,102240.81
2023-02-27T13:48:55.990Z,102243.46
2023-02-27T13:51:53.000Z,102253.91
2023-02-27T13:54:27.671Z,102255.91
2023-02-27T13:57:34.300Z,102259.39
2023-02-27T14:00:20.845Z,102259.30
2023-02-27T14:03:00.241Z,102256.38
2023-02-27T14:05:37.143Z,102261.98
2023-02-27T14:08:15.812Z,102259.86
2023-02-27T14:10:59.972Z,102258.91
2023-02-27T14:14:04.889Z,102260.41
2023-02-27T14:16:58.594Z,102261.31
2023-02-27T14:19:52.272Z,102265.94
2023-02-27T14:22:39.910Z,102263.23
2023-02-27T14:25:46.850Z,102266.38
2023-02-27T14:28:30.206Z,102259.42
2023-02-27T14:31:03.957Z,102257.30
2023-02-27T14:33:42.055Z,102254.80
2023-02-27T14:36:23.445Z,102258.09
2023-02-27T14:38:58.013Z,102260.49
2023-02-27T14:41:42.136Z,102265.41
2023-02-27T14:44:21.104Z,102271.56
2023-02-27T14:46:54.498Z,102270.40
2023-02-27T14:49:30.665Z,102276.77
2023-02-27T14:52:20.843Z,102277.32
2023-02-27T14:54:54.251Z,102284.14
2023-02-27T14:57:28.259Z,102285.11
2023-02-27T15:00:00.350Z,102287.91
2023-02-27T15:02:36.728Z,102289.20
2023-02-27T15:05:24.784Z,102287.41
2023-02-27T15:07:57.168Z,102288.83
2023-02-27T15:10:32.517Z,102288.77
2023-02-27T15:13:06.508Z,102287.84
2023-02-27T15:15:37.901Z,102292.86
2023-02-27T15:18:15.037Z,102291.06
2023-02-27T15:20:48.047Z,102291.34
2023-02-27T15:23:34.381Z,102294.26
2023-02-27T15:26:14.085Z,102294.83
2023-02-27T15:28:49.307Z,102295.75
2023-02-27T15:31:26.861Z,102300.16
2023-02-27T15:33:58.827Z,102303.67
2023-02-27T15:36:35.369Z,102311.95
2023-02-27T15:39:19.350Z,102309.96
2023-02-27T15:41:54.227Z,102321.34
2023-02-27T15:44:31.909Z,102327.97
2023-02-27T15:47:03.752Z,102327.79
2023-02-27T15:49:38.112Z,102327.92
2023-02-27T15:52:20.251Z,102328.91
2023-02-27T15:54:54.990Z,102334.94
2023-02-27T15:57:34.286Z,102330.30
2023-02-27T16:00:10.848Z,102332.83
2023-02-27T16:02:50.172Z,102334.75
2023-02-27T16:05:24.454Z,102339.71
2023-02-27T16:07:57.619Z,102341.48
2023-02-27T16:10:35.756Z,102342.59
2023-02-27T16:13:32.442Z,102348.05
2023-02-27T16:16:06.129Z,102356.54
2023-02-27T16:18:45.112Z,102358.76
2023-02-27T16:21:17.976Z,102360.91
2023-02-27T16:23:51.296Z,102363.41
2023-02-27T16:26:31.520Z,102367.95
2023-02-27T16:29:05.308Z,102378.60
2023-02-27T16:31:39.041Z,102382.16
2023-02-27T16:34:26.094Z,102387.95
2023-02-27T16:37:01.545Z,102392.15
2023-02-27T16:39:34.772Z,102396.33
2023-02-27T16:42:06.959Z,102402.60
2023-02-27T16:44:38.248Z,102402.71
2023-02-27T16:47:08.459Z,102403.98
2023-02-27T16:49:41.097Z,102406.84
2023-02-27T16:52:13.847Z,102409.86
2023-02-27T16:54:47.614Z,102415.30
2023-02-27T16:57:25.704Z,102418.21
2023-02-27T16:59:59.063Z,102422.17
2023-02-27T17:02:32.596Z,102424.14
2023-02-27T17:05:06.313Z,102427.19
2023-02-27T17:07:38.081Z,102430.77
2023-02-27T17:10:28.619Z,102436.17
2023-02-27T17:13:00.200Z,102441.85
2023-02-27T17:15:39.223Z,102445.21
2023-02-27T17:18:11.120Z,102455.18
2023-02-27T17:20:42.715Z,102454.61
2023-02-27T17:23:15.556Z,102461.36
2023-02-27T17:25:47.437Z,102463.58
2023-02-27T17:28:19.466Z,102467.52
2023-02-27T17:30:51.758Z,102465.59
2023-02-27T17:33:23.736Z,102469.80
2023-02-27T17:36:02.671Z,102470.09
2023-02-27T17:38:34.122Z,102469.35
2023-02-27T17:41:11.346Z,102473.66
2023-02-27T17:43:43.317Z,102477.20
2023-02-27T17:46:15.607Z,102480.66
2023-02-27T17:48:47.492Z,102483.97
2023-02-27T17:51:20.806Z,102482.25
2023-02-27T17:53:54.158Z,102480.59
2023-02-27T17:56:26.244Z,102480.60
2023-02-27T17:58:58.601Z,102482.37
2023-02-27T18:01:30.260Z,102483.15
2023-02-27T18:04:02.856Z,102488.84
2023-02-27T18:06:35.237Z,102484.02
2023-02-27T18:09:06.204Z,102485.52
2023-02-27T18:11:40.524Z,102491.16
2023-02-27T18:14:11.611Z,102486.04
2023-02-27T18:16:42.392Z,102484.80
2023-02-27T18:19:15.152Z,102490.48
2023-02-27T18:21:48.307Z,102489.24
2023-02-27T18:24:20.252Z,102490.34
2023-02-27T18:26:51.228Z,102492.66
2023-02-27T18:29:22.403Z,102495.80
2023-02-27T18:31:55.197Z,102498.00
2023-02-27T18:34:26.868Z,102501.18
2023-02-27T18:36:58.383Z,102503.30
2023-02-27T18:39:31.212Z,102503.59
2023-02-27T18:42:06.725Z,102501.34
2023-02-27T18:44:42.597Z,102506.73
2023-02-27T18:47:15.184Z,102505.34
2023-02-27T18:49:47.298Z,102512.88
2023-02-27T18:52:19.639Z,102519.53
2023-02-27T18:54:50.433Z,102523.77
2023-02-27T18:57:21.813Z,102524.52
2023-02-27T18:59:54.373Z,102525.20
2023-02-27T19:02:26.142Z,102522.80
2023-02-27T19:04:57.733Z,102522.04
2023-02-27T19:07:31.263Z,102525.30
2023-02-27T19:10:04.749Z,102526.90
2023-02-27T19:12:36.766Z,102527.73
2023-02-27T19:15:09.017Z,102533.38
2023-02-27T19:17:41.514Z,102536.80
2023-02-27T19:20:18.735Z,102539.74
2023-02-27T19:22:49.953Z,102533.29
2023-02-27T19:25:21.723Z,102533.50
2023-02-27T19:27:56.367Z,102533.40
2023-02-27T19:30:27.492Z,102534.85
2023-02-27T19:32:59.244Z,102537.63
2023-02-27T19:35:32.223Z,102537.73
2023-02-27T19:38:04.642Z,102540.48
2023-02-27T19:40:38.564Z,102541.21
2023-02-27T19:43:10.389Z,102543.48
2023-02-27T19:45:42.566Z,102543.80
2023-02-27T19:48:18.423Z,102549.96
2023-02-27T19:50:50.742Z,102551.02
2023-02-27T19:53:22.008Z,102553.07
2023-02-27T19:56:02.470Z,102553.73
2023-02-27T19:58:37.216Z,102554.30
2023-02-27T20:01:10.506Z,102549.92
2023-02-27T20:03:43.796Z,102551.09
2023-02-27T20:06:20.869Z,102558.66
2023-02-27T20:08:53.492Z,102556.16
2023-02-27T20:11:29.885Z,102554.03
2023-02-27T20:14:02.296Z,102557.98
2023-02-27T20:16:35.230Z,102560.22
2023-02-27T20:19:09.790Z,102555.42
2023-02-27T20:21:43.591Z,102560.07
2023-02-27T20:24:18.393Z,102564.42
2023-02-27T20:26:52.561Z,102566.61
2023-02-27T20:29:26.727Z,102566.46
2023-02-27T20:31:59.117Z,102569.08
2023-02-27T20:34:31.398Z,102569.36
2023-02-27T20:37:03.603Z,102572.33
2023-02-27T20:39:34.762Z,102574.75
2023-02-27T20:42:07.884Z,102570.95
2023-02-27T20:44:40.137Z,102574.00
2023-02-27T20:47:13.105Z,102573.27
2023-02-27T20:49:44.605Z,102572.49
2023-02-27T20:52:17.342Z,102574.10
2023-02-27T20:54:48.480Z,102573.92
2023-02-27T20:57:21.270Z,102578.52
2023-02-27T20:59:53.764Z,102578.16
2023-02-27T21:02:25.535Z,102581.37
2023-02-27T21:04:57.930Z,102582.59
2023-02-27T21:07:29.534Z,102587.43
2023-02-27T21:10:01.820Z,102585.61
2023-02-27T21:12:34.897Z,102585.73
2023-02-27T21:15:12.961Z,102588.52
2023-02-27T21:17:46.678Z,102589.31
2023-02-27T21:20:18.570Z,102584.15
2023-02-27T21:22:50.827Z,102589.21
2023-02-27T21:25:24.975Z,102585.27
2023-02-27T21:28:02.446Z,102584.21
2023-02-27T21:30:36.857Z,102587.55
2023-02-27T21:33:08.151Z,102584.87
2023-02-27T21:35:44.950Z,102583.14
2023-02-27T21:38:17.955Z,102582.31
2023-02-27T21:40:49.718Z,102585.95
2023-02-27T21:43:22.474Z,102587.08
2023-02-27T21:45:57.070Z,102589.43
2023-02-27T21:48:28.634Z,102590.08
2023-02-27T21:51:02.469Z,102595.04
2023-02-27T21:53:36.579Z,102601.70
2023-02-27T21:56:10.203Z,102601.79
2023-02-27T21:58:42.590Z,102602.94
2023-02-27T22:01:16.311Z,102603.38
2023-02-27T22:03:50.357Z,102604.05
2023-02-27T22:06:23.348Z,102603.95
2023-02-27T22:08:58.046Z,102605.08
2023-02-27T22:11:29.986Z,102607.05
2023-02-27T22:14:04.045Z,102601.95
2023-02-27T22:16:37.599Z,102600.88
2023-02-27T22:19:15.151Z,102602.38
2023-02-27T22:21:50.178Z,102602.20
2023-02-27T22:24:21.392Z,102605.25
2023-02-27T22:26:52.880Z,102599.55
2023-02-27T22:29:25.004Z,102601.50
2023-02-27T22:31:56.185Z,102602.33
2023-02-27T22:34:28.101Z,102605.40
2023-02-27T22:36:59.432Z,102608.05
2023-02-27T22:39:31.721Z,102606.29
2023-02-27T22:42:04.404Z,102606.59
2023-02-27T22:44:35.937Z,102611.24
2023-02-27T22:47:07.901Z,102610.10
2023-02-27T22:49:39.556Z,102609.23
2023-02-27T22:52:10.699Z,102610.28
2023-02-27T22:54:43.010Z,102611.23
2023-02-27T22:57:15.401Z,102609.08
2023-02-27T22:59:47.618Z,102612.26
2023-02-27T23:02:21.222Z,102611.42
2023-02-27T23:04:52.768Z,102610.91
2023-02-27T23:07:26.511Z,102615.11
2023-02-27T23:09:59.739Z,102616.48
2023-02-27T23:12:32.942Z,102615.98
2023-02-27T23:15:06.225Z,102617.46
2023-02-27T23:17:52.053Z,102612.80
2023-02-27T23:20:28.533Z,102611.45
2023-02-27T23:23:00.557Z,102617.68
2023-02-27T23:25:32.551Z,102615.33
2023-02-27T23:28:05.329Z,102617.80
2023-02-27T23:30:37.703Z,102619.01
2023-02-27T23:33:12.060Z,102619.45
2023-02-27T23:35:44.024Z,102619.58
2023-02-27T23:38:17.939Z,102623.27
2023-02-27T23:40:49.589Z,102622.69
2023-02-27T23:43:24.242Z,102626.67
2023-02-27T23:45:57.869Z,102626.80
2023-02-27T23:48:33.955Z,102627.81
2023-02-27T23:51:10.217Z,102631.09
2023-02-27T23:53:42.721Z,102632.25
2023-02-27T23:56:18.392Z,102633.02
2023-02-27T23:58:55.959Z,102631.74
